Central, Alabama
Current Conditions -  °F | °C
As of 4:55 PM on Thursday 27 Nov 2014 (Local Time) from KALX Reporting Station
Clear Clear  
Wind Chill: 41°   Ceiling: Unl
Heat Index: 46°   Visibility: 10mi
Dew Point: 26°   Wind: 10mph
Humidity: 46%   Direction: 320°NW
Pressure: 30.38"   Gusts: NA
Location:  32.6638°N, 86.0276°W
Report Text: KALX 272255Z AUTO 32009KT 10SM CLR 08/M03 A3038 RMK AO2 T00761033
Loading
Personal Weather Stations






























Interactive Weather Map New forecast layout! Learn more

10-Day Weather Forecast

Advertisements
Track Severe Weather on mobile